Terminal Aerodrome Forecast
Issued by NWS

Home | Current Version | Previous Version | Graphics & Text | Print | Product List | Glossary On
Versions: 1 2 3 4 5 6 7 8 9 10 11 12 13 14 15 16 17 18 19 20
000
FTUS43 KUNR 281233 AAA
TAFGCC
TAF AMD
KGCC 281233Z 2813/2912 VRB03KT P6SM BKN060
     FM281600 35008KT 4SM BR BKN005 OVC010
     FM281800 35016KT 2SM -RA BR OVC005=

USA.gov is the U.S. government's official web portal to all federal, state and local government web resources and services.